sensor_id;sensor_type;location;lat;lon;timestamp;temperature;humidity
7694;DHT22;3889;48.162;11.510;2022-12-05T00:01:19;2.40;99.90
7694;DHT22;3889;48.162;11.510;2022-12-05T00:03:49;2.40;99.90
7694;DHT22;3889;48.162;11.510;2022-12-05T00:06:18;2.30;99.90
7694;DHT22;3889;48.162;11.510;2022-12-05T00:08:48;2.40;99.90
7694;DHT22;3889;48.162;11.510;2022-12-05T00:11:18;2.40;99.90
7694;DHT22;3889;48.162;11.510;2022-12-05T00:13:46;2.50;99.90
7694;DHT22;3889;48.162;11.510;2022-12-05T00:16:16;2.50;99.90
7694;DHT22;3889;48.162;11.510;2022-12-05T00:18:45;2.50;99.90
7694;DHT22;3889;48.162;11.510;2022-12-05T00:21:21;2.40;99.90
7694;DHT22;3889;48.162;11.510;2022-12-05T00:23:51;2.40;99.90
7694;DHT22;3889;48.162;11.510;2022-12-05T00:26:20;2.40;99.90
7694;DHT22;3889;48.162;11.510;2022-12-05T00:28:48;2.50;99.90
7694;DHT22;3889;48.162;11.510;2022-12-05T00:31:18;2.40;99.90
7694;DHT22;3889;48.162;11.510;2022-12-05T00:33:47;2.50;99.90
7694;DHT22;3889;48.162;11.510;2022-12-05T00:36:17;2.40;99.90
7694;DHT22;3889;48.162;11.510;2022-12-05T00:38:46;2.40;99.90
7694;DHT22;3889;48.162;11.510;2022-12-05T00:41:17;2.50;99.90
7694;DHT22;3889;48.162;11.510;2022-12-05T00:43:45;2.50;99.90
7694;DHT22;3889;48.162;11.510;2022-12-05T00:46:15;2.50;99.90
7694;DHT22;3889;48.162;11.510;2022-12-05T00:48:44;2.50;99.90
7694;DHT22;3889;48.162;11.510;2022-12-05T00:51:14;2.50;99.90
7694;DHT22;3889;48.162;11.510;2022-12-05T00:53:43;2.50;99.90
7694;DHT22;3889;48.162;11.510;2022-12-05T00:56:16;2.50;99.90
7694;DHT22;3889;48.162;11.510;2022-12-05T00:58:44;2.50;99.90
7694;DHT22;3889;48.162;11.510;2022-12-05T01:01:14;2.50;99.90
7694;DHT22;3889;48.162;11.510;2022-12-05T01:03:44;2.50;99.90
7694;DHT22;3889;48.162;11.510;2022-12-05T01:06:13;2.50;99.90
7694;DHT22;3889;48.162;11.510;2022-12-05T01:08:41;2.50;99.90
7694;DHT22;3889;48.162;11.510;2022-12-05T01:11:10;2.50;99.90
7694;DHT22;3889;48.162;11.510;2022-12-05T01:13:40;2.60;99.90
7694;DHT22;3889;48.162;11.510;2022-12-05T01:16:12;2.50;99.90
7694;DHT22;3889;48.162;11.510;2022-12-05T01:18:41;2.50;99.90
7694;DHT22;3889;48.162;11.510;2022-12-05T01:21:09;2.50;99.90
7694;DHT22;3889;48.162;11.510;2022-12-05T01:23:37;2.50;99.90
7694;DHT22;3889;48.162;11.510;2022-12-05T01:26:06;2.50;99.90
7694;DHT22;3889;48.162;11.510;2022-12-05T01:28:37;2.50;99.90
7694;DHT22;3889;48.162;11.510;2022-12-05T01:31:08;2.60;99.90
7694;DHT22;3889;48.162;11.510;2022-12-05T01:33:36;2.60;99.90
7694;DHT22;3889;48.162;11.510;2022-12-05T01:36:09;2.60;99.90
7694;DHT22;3889;48.162;11.510;2022-12-05T01:38:38;2.50;99.90
7694;DHT22;3889;48.162;11.510;2022-12-05T01:41:08;2.60;99.90
7694;DHT22;3889;48.162;11.510;2022-12-05T01:43:56;2.50;99.90
7694;DHT22;3889;48.162;11.510;2022-12-05T01:46:27;2.40;99.90
7694;DHT22;3889;48.162;11.510;2022-12-05T01:48:59;2.30;99.90
7694;DHT22;3889;48.162;11.510;2022-12-05T01:51:29;2.20;99.90
7694;DHT22;3889;48.162;11.510;2022-12-05T01:53:57;2.20;99.90
7694;DHT22;3889;48.162;11.510;2022-12-05T01:56:26;2.20;99.90
7694;DHT22;3889;48.162;11.510;2022-12-05T01:58:54;2.30;99.90
7694;DHT22;3889;48.162;11.510;2022-12-05T02:01:24;2.30;99.90
7694;DHT22;3889;48.162;11.510;2022-12-05T02:03:55;2.40;99.90
7694;DHT22;3889;48.162;11.510;2022-12-05T02:06:26;2.30;99.90
7694;DHT22;3889;48.162;11.510;2022-12-05T02:08:54;2.10;99.90
7694;DHT22;3889;48.162;11.510;2022-12-05T02:11:24;2.20;99.90
7694;DHT22;3889;48.162;11.510;2022-12-05T02:14:12;2.30;99.90
7694;DHT22;3889;48.162;11.510;2022-12-05T02:16:57;2.20;99.90
7694;DHT22;3889;48.162;11.510;2022-12-05T02:28:49;2.20;99.90
7694;DHT22;3889;48.162;11.510;2022-12-05T02:31:26;2.10;99.90
7694;DHT22;3889;48.162;11.510;2022-12-05T02:34:05;2.20;99.90
7694;DHT22;3889;48.162;11.510;2022-12-05T02:36:40;2.20;99.90
7694;DHT22;3889;48.162;11.510;2022-12-05T02:39:14;2.20;99.90
7694;DHT22;3889;48.162;11.510;2022-12-05T02:41:48;2.20;99.90
7694;DHT22;3889;48.162;11.510;2022-12-05T02:44:21;2.20;99.90
7694;DHT22;3889;48.162;11.510;2022-12-05T02:46:52;2.20;99.90
7694;DHT22;3889;48.162;11.510;2022-12-05T02:49:22;2.20;99.90
7694;DHT22;3889;48.162;11.510;2022-12-05T02:51:55;2.20;99.90
7694;DHT22;3889;48.162;11.510;2022-12-05T02:54:27;2.20;99.90
7694;DHT22;3889;48.162;11.510;2022-12-05T02:56:57;2.20;99.90
7694;DHT22;3889;48.162;11.510;2022-12-05T02:59:26;2.30;99.90
7694;DHT22;3889;48.162;11.510;2022-12-05T03:01:55;2.30;99.90
7694;DHT22;3889;48.162;11.510;2022-12-05T03:04:24;2.20;99.90
7694;DHT22;3889;48.162;11.510;2022-12-05T03:06:55;2.30;99.90
7694;DHT22;3889;48.162;11.510;2022-12-05T03:09:29;2.20;99.90
7694;DHT22;3889;48.162;11.510;2022-12-05T03:12:04;2.00;99.90
7694;DHT22;3889;48.162;11.510;2022-12-05T03:14:37;2.20;99.90
7694;DHT22;3889;48.162;11.510;2022-12-05T03:17:10;2.10;99.90
7694;DHT22;3889;48.162;11.510;2022-12-05T03:19:44;2.10;99.90
7694;DHT22;3889;48.162;11.510;2022-12-05T03:22:18;2.20;99.90
7694;DHT22;3889;48.162;11.510;2022-12-05T03:24:48;2.10;99.90
7694;DHT22;3889;48.162;11.510;2022-12-05T03:27:21;2.10;99.90
7694;DHT22;3889;48.162;11.510;2022-12-05T03:29:55;2.20;99.90
7694;DHT22;3889;48.162;11.510;2022-12-05T03:32:29;2.20;99.90
7694;DHT22;3889;48.162;11.510;2022-12-05T03:35:05;2.20;99.90
7694;DHT22;3889;48.162;11.510;2022-12-05T03:37:41;2.20;99.90
7694;DHT22;3889;48.162;11.510;2022-12-05T03:40:25;2.20;99.90
7694;DHT22;3889;48.162;11.510;2022-12-05T03:42:58;2.20;99.90
7694;DHT22;3889;48.162;11.510;2022-12-05T03:45:33;2.30;99.90
7694;DHT22;3889;48.162;11.510;2022-12-05T03:48:09;2.30;99.90
7694;DHT22;3889;48.162;11.510;2022-12-05T03:50:43;2.30;99.90
7694;DHT22;3889;48.162;11.510;2022-12-05T03:53:15;2.40;99.90
7694;DHT22;3889;48.162;11.510;2022-12-05T03:55:48;2.30;99.90
7694;DHT22;3889;48.162;11.510;2022-12-05T03:58:23;2.30;99.90
7694;DHT22;3889;48.162;11.510;2022-12-05T04:00:53;2.40;99.90
7694;DHT22;3889;48.162;11.510;2022-12-05T04:03:29;2.40;99.90
7694;DHT22;3889;48.162;11.510;2022-12-05T04:06:09;2.40;99.90
7694;DHT22;3889;48.162;11.510;2022-12-05T04:08:42;2.40;99.90
7694;DHT22;3889;48.162;11.510;2022-12-05T04:11:15;2.40;99.90
7694;DHT22;3889;48.162;11.510;2022-12-05T04:13:46;2.40;99.90
7694;DHT22;3889;48.162;11.510;2022-12-05T04:16:19;2.40;99.90
7694;DHT22;3889;48.162;11.510;2022-12-05T04:19:11;2.30;99.90
7694;DHT22;3889;48.162;11.510;2022-12-05T04:21:44;2.30;99.90
7694;DHT22;3889;48.162;11.510;2022-12-05T04:24:14;2.30;99.90
7694;DHT22;3889;48.162;11.510;2022-12-05T04:27:09;2.30;99.90
7694;DHT22;3889;48.162;11.510;2022-12-05T04:29:43;2.40;99.90
7694;DHT22;3889;48.162;11.510;2022-12-05T04:32:12;2.40;99.90
7694;DHT22;3889;48.162;11.510;2022-12-05T04:34:45;2.50;99.90
7694;DHT22;3889;48.162;11.510;2022-12-05T04:37:17;2.50;99.90
7694;DHT22;3889;48.162;11.510;2022-12-05T04:39:53;2.60;99.90
7694;DHT22;3889;48.162;11.510;2022-12-05T04:42:24;2.60;99.90
7694;DHT22;3889;48.162;11.510;2022-12-05T04:44:55;2.60;99.90
7694;DHT22;3889;48.162;11.510;2022-12-05T04:47:28;2.60;99.90
7694;DHT22;3889;48.162;11.510;2022-12-05T04:49:59;2.60;99.90
7694;DHT22;3889;48.162;11.510;2022-12-05T04:52:29;2.70;99.90
7694;DHT22;3889;48.162;11.510;2022-12-05T04:55:02;2.60;99.90
7694;DHT22;3889;48.162;11.510;2022-12-05T04:57:34;2.60;99.90
7694;DHT22;3889;48.162;11.510;2022-12-05T05:00:06;2.50;99.90
7694;DHT22;3889;48.162;11.510;2022-12-05T05:02:46;2.60;99.90
7694;DHT22;3889;48.162;11.510;2022-12-05T05:05:17;2.60;99.90
7694;DHT22;3889;48.162;11.510;2022-12-05T05:07:47;2.70;99.90
7694;DHT22;3889;48.162;11.510;2022-12-05T05:10:18;2.70;99.90
7694;DHT22;3889;48.162;11.510;2022-12-05T05:12:47;2.70;99.90
7694;DHT22;3889;48.162;11.510;2022-12-05T05:15:15;2.70;99.90
7694;DHT22;3889;48.162;11.510;2022-12-05T05:17:43;2.70;99.90
7694;DHT22;3889;48.162;11.510;2022-12-05T05:20:11;2.70;99.90
7694;DHT22;3889;48.162;11.510;2022-12-05T05:22:55;2.70;99.90
7694;DHT22;3889;48.162;11.510;2022-12-05T05:25:24;2.70;99.90
7694;DHT22;3889;48.162;11.510;2022-12-05T05:27:53;2.70;99.90
7694;DHT22;3889;48.162;11.510;2022-12-05T05:30:22;2.80;99.90
7694;DHT22;3889;48.162;11.510;2022-12-05T05:32:51;2.80;99.90
7694;DHT22;3889;48.162;11.510;2022-12-05T05:35:19;2.80;99.90
7694;DHT22;3889;48.162;11.510;2022-12-05T05:37:48;2.80;99.90
7694;DHT22;3889;48.162;11.510;2022-12-05T05:40:17;2.90;99.90
7694;DHT22;3889;48.162;11.510;2022-12-05T05:42:47;2.90;99.90
7694;DHT22;3889;48.162;11.510;2022-12-05T05:45:16;2.90;99.90
7694;DHT22;3889;48.162;11.510;2022-12-05T05:47:44;3.00;99.90
7694;DHT22;3889;48.162;11.510;2022-12-05T05:50:12;3.00;99.90
7694;DHT22;3889;48.162;11.510;2022-12-05T05:52:47;3.00;99.90
7694;DHT22;3889;48.162;11.510;2022-12-05T05:55:16;3.00;99.90
7694;DHT22;3889;48.162;11.510;2022-12-05T05:57:44;2.90;99.90
7694;DHT22;3889;48.162;11.510;2022-12-05T06:00:13;2.90;99.90
7694;DHT22;3889;48.162;11.510;2022-12-05T06:02:41;2.90;99.90
7694;DHT22;3889;48.162;11.510;2022-12-05T06:05:09;3.00;99.90
7694;DHT22;3889;48.162;11.510;2022-12-05T06:07:37;3.00;99.90
7694;DHT22;3889;48.162;11.510;2022-12-05T06:10:06;3.10;99.90
7694;DHT22;3889;48.162;11.510;2022-12-05T06:12:35;3.00;99.90
7694;DHT22;3889;48.162;11.510;2022-12-05T06:15:04;3.10;99.90
7694;DHT22;3889;48.162;11.510;2022-12-05T06:17:32;3.10;99.90
7694;DHT22;3889;48.162;11.510;2022-12-05T06:20:00;3.10;99.90
7694;DHT22;3889;48.162;11.510;2022-12-05T06:22:28;3.00;99.90
7694;DHT22;3889;48.162;11.510;2022-12-05T06:24:57;3.10;99.90
7694;DHT22;3889;48.162;11.510;2022-12-05T06:27:25;3.10;99.90
7694;DHT22;3889;48.162;11.510;2022-12-05T06:29:54;3.00;99.90
7694;DHT22;3889;48.162;11.510;2022-12-05T06:32:22;3.10;99.90
7694;DHT22;3889;48.162;11.510;2022-12-05T06:34:50;3.10;99.90
7694;DHT22;3889;48.162;11.510;2022-12-05T06:37:18;3.10;99.90
7694;DHT22;3889;48.162;11.510;2022-12-05T06:39:46;3.10;99.90
7694;DHT22;3889;48.162;11.510;2022-12-05T06:42:13;3.10;99.90
7694;DHT22;3889;48.162;11.510;2022-12-05T06:44:41;3.10;99.90
7694;DHT22;3889;48.162;11.510;2022-12-05T06:47:10;3.10;99.90
7694;DHT22;3889;48.162;11.510;2022-12-05T06:49:38;3.20;99.90
7694;DHT22;3889;48.162;11.510;2022-12-05T06:52:06;3.20;99.90
7694;DHT22;3889;48.162;11.510;2022-12-05T06:54:34;3.10;99.90
7694;DHT22;3889;48.162;11.510;2022-12-05T06:57:02;3.20;99.90
7694;DHT22;3889;48.162;11.510;2022-12-05T06:59:30;3.20;99.90
7694;DHT22;3889;48.162;11.510;2022-12-05T07:01:58;3.30;99.90
7694;DHT22;3889;48.162;11.510;2022-12-05T07:04:27;3.30;99.90
7694;DHT22;3889;48.162;11.510;2022-12-05T07:06:55;3.30;99.90
7694;DHT22;3889;48.162;11.510;2022-12-05T07:09:24;3.30;99.90
7694;DHT22;3889;48.162;11.510;2022-12-05T07:12:12;3.30;99.90
7694;DHT22;3889;48.162;11.510;2022-12-05T07:14:40;3.40;99.90
7694;DHT22;3889;48.162;11.510;2022-12-05T07:17:14;3.40;99.90
7694;DHT22;3889;48.162;11.510;2022-12-05T07:19:43;3.40;99.90
7694;DHT22;3889;48.162;11.510;2022-12-05T07:22:11;3.30;99.90
7694;DHT22;3889;48.162;11.510;2022-12-05T07:24:42;3.40;99.90
7694;DHT22;3889;48.162;11.510;2022-12-05T07:27:10;3.40;99.90
7694;DHT22;3889;48.162;11.510;2022-12-05T07:29:38;3.50;99.90
7694;DHT22;3889;48.162;11.510;2022-12-05T07:32:06;3.50;99.90
7694;DHT22;3889;48.162;11.510;2022-12-05T07:34:34;3.50;99.90
7694;DHT22;3889;48.162;11.510;2022-12-05T07:37:03;3.40;99.90
7694;DHT22;3889;48.162;11.510;2022-12-05T07:39:31;3.40;99.90
7694;DHT22;3889;48.162;11.510;2022-12-05T07:41:59;3.50;99.90
7694;DHT22;3889;48.162;11.510;2022-12-05T07:44:26;3.60;99.90
7694;DHT22;3889;48.162;11.510;2022-12-05T07:46:54;3.60;99.90
7694;DHT22;3889;48.162;11.510;2022-12-05T07:49:22;3.60;99.90
7694;DHT22;3889;48.162;11.510;2022-12-05T07:51:50;3.70;99.90
7694;DHT22;3889;48.162;11.510;2022-12-05T07:54:19;3.70;99.90
7694;DHT22;3889;48.162;11.510;2022-12-05T07:56:47;3.80;99.90
7694;DHT22;3889;48.162;11.510;2022-12-05T07:59:15;3.80;99.90
7694;DHT22;3889;48.162;11.510;2022-12-05T08:01:43;3.80;99.90
7694;DHT22;3889;48.162;11.510;2022-12-05T08:04:11;3.80;99.90
7694;DHT22;3889;48.162;11.510;2022-12-05T08:06:41;3.80;99.90
7694;DHT22;3889;48.162;11.510;2022-12-05T08:09:09;3.80;99.90
7694;DHT22;3889;48.162;11.510;2022-12-05T08:11:39;3.80;99.90
7694;DHT22;3889;48.162;11.510;2022-12-05T08:14:07;3.70;99.90
7694;DHT22;3889;48.162;11.510;2022-12-05T08:16:35;3.80;99.90
7694;DHT22;3889;48.162;11.510;2022-12-05T08:19:05;3.80;99.90
7694;DHT22;3889;48.162;11.510;2022-12-05T08:21:33;3.80;99.90
7694;DHT22;3889;48.162;11.510;2022-12-05T08:24:03;3.80;99.90
7694;DHT22;3889;48.162;11.510;2022-12-05T08:26:33;3.90;99.90
7694;DHT22;3889;48.162;11.510;2022-12-05T08:29:04;4.00;99.90
7694;DHT22;3889;48.162;11.510;2022-12-05T08:31:34;3.90;99.90
7694;DHT22;3889;48.162;11.510;2022-12-05T08:34:02;3.90;99.90
7694;DHT22;3889;48.162;11.510;2022-12-05T08:36:30;4.00;99.90
7694;DHT22;3889;48.162;11.510;2022-12-05T08:39:00;4.00;99.90
7694;DHT22;3889;48.162;11.510;2022-12-05T08:41:28;3.90;99.90
7694;DHT22;3889;48.162;11.510;2022-12-05T08:43:57;4.00;99.90
7694;DHT22;3889;48.162;11.510;2022-12-05T08:46:26;4.10;99.90
7694;DHT22;3889;48.162;11.510;2022-12-05T08:48:54;4.20;99.90
7694;DHT22;3889;48.162;11.510;2022-12-05T08:51:22;4.20;99.90
7694;DHT22;3889;48.162;11.510;2022-12-05T08:53:50;4.30;99.90
7694;DHT22;3889;48.162;11.510;2022-12-05T08:56:19;4.40;99.90
7694;DHT22;3889;48.162;11.510;2022-12-05T08:58:52;4.40;99.90
7694;DHT22;3889;48.162;11.510;2022-12-05T09:01:28;4.40;99.90
7694;DHT22;3889;48.162;11.510;2022-12-05T09:03:58;4.40;99.90
7694;DHT22;3889;48.162;11.510;2022-12-05T09:06:27;4.40;99.90
7694;DHT22;3889;48.162;11.510;2022-12-05T09:08:57;4.40;99.90
7694;DHT22;3889;48.162;11.510;2022-12-05T09:11:27;4.30;99.90
7694;DHT22;3889;48.162;11.510;2022-12-05T09:13:56;4.30;99.90
7694;DHT22;3889;48.162;11.510;2022-12-05T09:16:28;4.30;99.90
7694;DHT22;3889;48.162;11.510;2022-12-05T09:19:03;4.20;99.90
7694;DHT22;3889;48.162;11.510;2022-12-05T09:21:31;4.30;99.90
7694;DHT22;3889;48.162;11.510;2022-12-05T09:24:00;4.20;99.90
7694;DHT22;3889;48.162;11.510;2022-12-05T09:26:28;4.20;99.90
7694;DHT22;3889;48.162;11.510;2022-12-05T09:28:56;4.20;99.90
7694;DHT22;3889;48.162;11.510;2022-12-05T09:31:25;4.20;99.90
7694;DHT22;3889;48.162;11.510;2022-12-05T09:33:55;4.20;99.90
7694;DHT22;3889;48.162;11.510;2022-12-05T09:36:25;4.30;99.90
7694;DHT22;3889;48.162;11.510;2022-12-05T09:38:55;4.40;99.90
7694;DHT22;3889;48.162;11.510;2022-12-05T09:41:44;4.30;99.90
7694;DHT22;3889;48.162;11.510;2022-12-05T09:44:48;4.30;99.90
7694;DHT22;3889;48.162;11.510;2022-12-05T09:47:31;4.30;99.90
7694;DHT22;3889;48.162;11.510;2022-12-05T09:50:14;4.30;99.90
7694;DHT22;3889;48.162;11.510;2022-12-05T09:52:52;4.30;99.90
7694;DHT22;3889;48.162;11.510;2022-12-05T09:55:21;4.40;99.90
7694;DHT22;3889;48.162;11.510;2022-12-05T09:57:51;4.50;99.90
7694;DHT22;3889;48.162;11.510;2022-12-05T10:00:20;4.60;99.90
7694;DHT22;3889;48.162;11.510;2022-12-05T10:02:56;4.60;99.90
7694;DHT22;3889;48.162;11.510;2022-12-05T10:05:30;4.60;99.90
7694;DHT22;3889;48.162;11.510;2022-12-05T10:08:05;4.60;99.90
7694;DHT22;3889;48.162;11.510;2022-12-05T10:10:43;4.60;99.90
7694;DHT22;3889;48.162;11.510;2022-12-05T10:13:23;4.60;99.90
7694;DHT22;3889;48.162;11.510;2022-12-05T10:15:54;4.70;99.90
7694;DHT22;3889;48.162;11.510;2022-12-05T10:18:31;4.60;99.90
7694;DHT22;3889;48.162;11.510;2022-12-05T10:21:03;4.60;99.90
7694;DHT22;3889;48.162;11.510;2022-12-05T10:23:37;4.50;99.90
7694;DHT22;3889;48.162;11.510;2022-12-05T10:26:25;4.70;99.90
7694;DHT22;3889;48.162;11.510;2022-12-05T10:28:57;4.80;99.90
7694;DHT22;3889;48.162;11.510;2022-12-05T10:31:31;4.90;99.90
7694;DHT22;3889;48.162;11.510;2022-12-05T10:34:03;4.90;99.90
7694;DHT22;3889;48.162;11.510;2022-12-05T10:36:34;4.90;99.90
7694;DHT22;3889;48.162;11.510;2022-12-05T10:39:02;4.90;99.90
7694;DHT22;3889;48.162;11.510;2022-12-05T10:41:36;4.90;99.90
7694;DHT22;3889;48.162;11.510;2022-12-05T10:44:04;5.00;99.90
7694;DHT22;3889;48.162;11.510;2022-12-05T10:46:32;5.10;99.90
7694;DHT22;3889;48.162;11.510;2022-12-05T10:49:00;5.10;99.90
7694;DHT22;3889;48.162;11.510;2022-12-05T10:51:29;5.10;99.90
7694;DHT22;3889;48.162;11.510;2022-12-05T10:54:13;5.20;99.90
7694;DHT22;3889;48.162;11.510;2022-12-05T10:56:43;5.10;99.90
7694;DHT22;3889;48.162;11.510;2022-12-05T10:59:13;5.00;99.90
7694;DHT22;3889;48.162;11.510;2022-12-05T11:01:48;5.20;99.90
7694;DHT22;3889;48.162;11.510;2022-12-05T11:04:23;5.10;99.90
7694;DHT22;3889;48.162;11.510;2022-12-05T11:06:55;5.20;99.90
7694;DHT22;3889;48.162;11.510;2022-12-05T11:09:26;5.30;99.90
7694;DHT22;3889;48.162;11.510;2022-12-05T11:12:15;5.40;99.90
7694;DHT22;3889;48.162;11.510;2022-12-05T11:15:03;5.40;99.90
7694;DHT22;3889;48.162;11.510;2022-12-05T11:17:33;5.40;99.90
7694;DHT22;3889;48.162;11.510;2022-12-05T11:20:02;5.40;99.90
7694;DHT22;3889;48.162;11.510;2022-12-05T11:22:32;5.30;99.90
7694;DHT22;3889;48.162;11.510;2022-12-05T11:25:24;5.40;99.90
7694;DHT22;3889;48.162;11.510;2022-12-05T11:27:53;5.40;99.90
7694;DHT22;3889;48.162;11.510;2022-12-05T11:30:28;5.40;99.90
7694;DHT22;3889;48.162;11.510;2022-12-05T11:33:10;5.20;99.90
7694;DHT22;3889;48.162;11.510;2022-12-05T11:35:39;5.30;99.90
7694;DHT22;3889;48.162;11.510;2022-12-05T11:38:09;5.40;99.90
7694;DHT22;3889;48.162;11.510;2022-12-05T11:40:45;5.50;99.90
7694;DHT22;3889;48.162;11.510;2022-12-05T11:43:34;5.50;99.90
7694;DHT22;3889;48.162;11.510;2022-12-05T11:46:12;5.50;99.90
7694;DHT22;3889;48.162;11.510;2022-12-05T11:49:02;5.60;99.90
7694;DHT22;3889;48.162;11.510;2022-12-05T11:51:37;5.70;99.90
7694;DHT22;3889;48.162;11.510;2022-12-05T11:54:34;5.70;99.90
7694;DHT22;3889;48.162;11.510;2022-12-05T11:57:45;5.80;99.90
7694;DHT22;3889;48.162;11.510;2022-12-05T12:00:21;5.90;99.90
7694;DHT22;3889;48.162;11.510;2022-12-05T12:03:11;5.90;99.90
7694;DHT22;3889;48.162;11.510;2022-12-05T12:05:52;5.90;99.90
7694;DHT22;3889;48.162;11.510;2022-12-05T12:08:24;5.90;99.90
7694;DHT22;3889;48.162;11.510;2022-12-05T12:10:59;5.90;99.90
7694;DHT22;3889;48.162;11.510;2022-12-05T12:13:50;5.90;99.90
7694;DHT22;3889;48.162;11.510;2022-12-05T12:16:29;5.90;99.90
7694;DHT22;3889;48.162;11.510;2022-12-05T12:19:14;5.90;99.90
7694;DHT22;3889;48.162;11.510;2022-12-05T12:21:59;5.60;99.90
7694;DHT22;3889;48.162;11.510;2022-12-05T12:24:39;5.60;99.90
7694;DHT22;3889;48.162;11.510;2022-12-05T12:27:18;5.60;99.90
7694;DHT22;3889;48.162;11.510;2022-12-05T12:30:02;5.60;99.90
7694;DHT22;3889;48.162;11.510;2022-12-05T12:32:38;5.60;99.90
7694;DHT22;3889;48.162;11.510;2022-12-05T12:35:29;5.50;99.90
7694;DHT22;3889;48.162;11.510;2022-12-05T12:38:16;5.50;99.90
7694;DHT22;3889;48.162;11.510;2022-12-05T12:40:49;5.40;99.90
7694;DHT22;3889;48.162;11.510;2022-12-05T12:43:38;5.40;99.90
7694;DHT22;3889;48.162;11.510;2022-12-05T12:46:35;5.50;99.90
7694;DHT22;3889;48.162;11.510;2022-12-05T12:49:35;5.60;99.90
7694;DHT22;3889;48.162;11.510;2022-12-05T12:52:11;5.60;99.90
7694;DHT22;3889;48.162;11.510;2022-12-05T12:54:49;5.60;99.90
7694;DHT22;3889;48.162;11.510;2022-12-05T12:57:38;5.60;99.90
7694;DHT22;3889;48.162;11.510;2022-12-05T13:00:20;5.40;99.90
7694;DHT22;3889;48.162;11.510;2022-12-05T13:02:55;5.50;99.90
7694;DHT22;3889;48.162;11.510;2022-12-05T13:05:31;5.50;99.90
7694;DHT22;3889;48.162;11.510;2022-12-05T13:08:03;5.50;99.90
7694;DHT22;3889;48.162;11.510;2022-12-05T13:10:34;5.40;99.90
7694;DHT22;3889;48.162;11.510;2022-12-05T13:13:05;5.50;99.90
7694;DHT22;3889;48.162;11.510;2022-12-05T13:15:37;5.50;99.90
7694;DHT22;3889;48.162;11.510;2022-12-05T13:18:15;5.50;99.90
7694;DHT22;3889;48.162;11.510;2022-12-05T13:20:46;5.50;99.90
7694;DHT22;3889;48.162;11.510;2022-12-05T13:23:18;5.40;99.90
7694;DHT22;3889;48.162;11.510;2022-12-05T13:25:48;5.40;99.90
7694;DHT22;3889;48.162;11.510;2022-12-05T13:28:24;5.40;99.90
7694;DHT22;3889;48.162;11.510;2022-12-05T13:30:54;5.40;99.90
7694;DHT22;3889;48.162;11.510;2022-12-05T13:33:31;5.30;99.90
7694;DHT22;3889;48.162;11.510;2022-12-05T13:36:08;5.30;99.90
7694;DHT22;3889;48.162;11.510;2022-12-05T13:38:56;5.20;99.90
7694;DHT22;3889;48.162;11.510;2022-12-05T13:41:43;5.20;99.90
7694;DHT22;3889;48.162;11.510;2022-12-05T13:44:33;5.20;99.90
7694;DHT22;3889;48.162;11.510;2022-12-05T13:47:03;5.10;99.90
7694;DHT22;3889;48.162;11.510;2022-12-05T13:49:41;5.10;99.90
7694;DHT22;3889;48.162;11.510;2022-12-05T13:52:13;5.20;99.90
7694;DHT22;3889;48.162;11.510;2022-12-05T13:54:43;5.10;99.90
7694;DHT22;3889;48.162;11.510;2022-12-05T14:00:26;5.00;99.90
7694;DHT22;3889;48.162;11.510;2022-12-05T14:02:57;4.90;99.90
7694;DHT22;3889;48.162;11.510;2022-12-05T14:05:42;4.90;99.90
7694;DHT22;3889;48.162;11.510;2022-12-05T14:11:14;4.90;99.90
7694;DHT22;3889;48.162;11.510;2022-12-05T14:13:43;4.90;99.90
7694;DHT22;3889;48.162;11.510;2022-12-05T14:16:44;4.90;99.90
7694;DHT22;3889;48.162;11.510;2022-12-05T14:19:26;4.80;99.90
7694;DHT22;3889;48.162;11.510;2022-12-05T14:24:55;4.90;99.90
7694;DHT22;3889;48.162;11.510;2022-12-05T14:27:37;4.90;99.90
7694;DHT22;3889;48.162;11.510;2022-12-05T14:30:19;5.00;99.90
7694;DHT22;3889;48.162;11.510;2022-12-05T14:32:49;4.90;99.90
7694;DHT22;3889;48.162;11.510;2022-12-05T14:35:20;4.90;99.90
7694;DHT22;3889;48.162;11.510;2022-12-05T14:37:53;4.90;99.90
7694;DHT22;3889;48.162;11.510;2022-12-05T14:40:28;4.80;99.90
7694;DHT22;3889;48.162;11.510;2022-12-05T14:42:58;4.70;99.90
7694;DHT22;3889;48.162;11.510;2022-12-05T14:45:32;4.80;99.90
7694;DHT22;3889;48.162;11.510;2022-12-05T14:48:02;4.80;99.90
7694;DHT22;3889;48.162;11.510;2022-12-05T14:50:38;4.80;99.90
7694;DHT22;3889;48.162;11.510;2022-12-05T14:53:24;4.80;99.90
7694;DHT22;3889;48.162;11.510;2022-12-05T14:56:02;4.70;99.90
7694;DHT22;3889;48.162;11.510;2022-12-05T14:58:34;4.70;99.90
7694;DHT22;3889;48.162;11.510;2022-12-05T15:01:06;4.70;99.90
7694;DHT22;3889;48.162;11.510;2022-12-05T15:03:38;4.70;99.90
7694;DHT22;3889;48.162;11.510;2022-12-05T15:06:11;4.70;99.90
7694;DHT22;3889;48.162;11.510;2022-12-05T15:08:46;4.70;99.90
7694;DHT22;3889;48.162;11.510;2022-12-05T15:11:17;4.70;99.90
7694;DHT22;3889;48.162;11.510;2022-12-05T15:13:57;4.70;99.90
7694;DHT22;3889;48.162;11.510;2022-12-05T15:16:26;4.70;99.90
7694;DHT22;3889;48.162;11.510;2022-12-05T15:18:59;4.60;99.90
7694;DHT22;3889;48.162;11.510;2022-12-05T15:21:32;4.60;99.90
7694;DHT22;3889;48.162;11.510;2022-12-05T15:24:02;4.60;99.90
7694;DHT22;3889;48.162;11.510;2022-12-05T15:26:37;4.50;99.90
7694;DHT22;3889;48.162;11.510;2022-12-05T15:29:22;4.60;99.90
7694;DHT22;3889;48.162;11.510;2022-12-05T15:31:53;4.50;99.90
7694;DHT22;3889;48.162;11.510;2022-12-05T15:34:26;4.50;99.90
7694;DHT22;3889;48.162;11.510;2022-12-05T15:36:59;4.50;99.90
7694;DHT22;3889;48.162;11.510;2022-12-05T15:39:49;4.50;99.90
7694;DHT22;3889;48.162;11.510;2022-12-05T15:42:17;4.40;99.90
7694;DHT22;3889;48.162;11.510;2022-12-05T15:44:51;4.40;99.90
7694;DHT22;3889;48.162;11.510;2022-12-05T15:47:21;4.40;99.90
7694;DHT22;3889;48.162;11.510;2022-12-05T15:49:49;4.40;99.90
7694;DHT22;3889;48.162;11.510;2022-12-05T15:52:24;4.30;99.90
7694;DHT22;3889;48.162;11.510;2022-12-05T15:54:59;4.40;99.90
7694;DHT22;3889;48.162;11.510;2022-12-05T15:57:34;4.40;99.90
7694;DHT22;3889;48.162;11.510;2022-12-05T16:00:06;4.40;99.90
7694;DHT22;3889;48.162;11.510;2022-12-05T16:02:39;4.40;99.90
7694;DHT22;3889;48.162;11.510;2022-12-05T16:05:20;4.40;99.90
7694;DHT22;3889;48.162;11.510;2022-12-05T16:07:49;4.40;99.90
7694;DHT22;3889;48.162;11.510;2022-12-05T16:10:20;4.40;99.90
7694;DHT22;3889;48.162;11.510;2022-12-05T16:12:55;4.40;99.90
7694;DHT22;3889;48.162;11.510;2022-12-05T16:15:28;4.40;99.90
7694;DHT22;3889;48.162;11.510;2022-12-05T16:17:59;4.40;99.90
7694;DHT22;3889;48.162;11.510;2022-12-05T16:20:29;4.40;99.90
7694;DHT22;3889;48.162;11.510;2022-12-05T16:23:00;4.40;99.90
7694;DHT22;3889;48.162;11.510;2022-12-05T16:25:32;4.40;99.90
7694;DHT22;3889;48.162;11.510;2022-12-05T16:28:11;4.40;99.90
7694;DHT22;3889;48.162;11.510;2022-12-05T16:30:42;4.40;99.90
7694;DHT22;3889;48.162;11.510;2022-12-05T16:33:19;4.40;99.90
7694;DHT22;3889;48.162;11.510;2022-12-05T16:35:47;4.40;99.90
7694;DHT22;3889;48.162;11.510;2022-12-05T16:38:19;4.40;99.90
7694;DHT22;3889;48.162;11.510;2022-12-05T16:40:54;4.40;99.90
7694;DHT22;3889;48.162;11.510;2022-12-05T16:43:25;4.40;99.90
7694;DHT22;3889;48.162;11.510;2022-12-05T16:45:55;4.40;99.90
7694;DHT22;3889;48.162;11.510;2022-12-05T16:48:25;4.40;99.90
7694;DHT22;3889;48.162;11.510;2022-12-05T16:51:15;4.40;99.90
7694;DHT22;3889;48.162;11.510;2022-12-05T16:53:45;4.40;99.90
7694;DHT22;3889;48.162;11.510;2022-12-05T16:56:17;4.40;99.90
7694;DHT22;3889;48.162;11.510;2022-12-05T16:58:47;4.30;99.90